createdAt,value
2023-05-14T00:00:17.319Z,98.9211
2023-05-14T00:01:17.321Z,98.9528
2023-05-14T00:02:17.908Z,98.9875
2023-05-14T00:03:18.917Z,98.9976
2023-05-14T00:04:19.840Z,99.0323
2023-05-14T00:05:20.084Z,99.0786
2023-05-14T00:06:20.242Z,99.1084
2023-05-14T00:07:20.556Z,99.1052
2023-05-14T00:08:21.526Z,99.1031
2023-05-14T00:09:22.686Z,99.1018
2023-05-14T00:10:23.545Z,99.1091
2023-05-14T00:11:24.233Z,99.1047
2023-05-14T00:12:24.372Z,99.1306
2023-05-14T00:13:24.660Z,99.1551
2023-05-14T00:14:24.793Z,99.2024
2023-05-14T00:15:25.832Z,99.2260
2023-05-14T00:16:27.152Z,99.2449
2023-05-14T00:17:28.023Z,99.2744
2023-05-14T00:18:28.823Z,99.2683
2023-05-14T00:20:49.517Z,99.2132
2023-05-14T00:28:56.742Z,98.9218
2023-05-14T00:30:56.408Z,98.8420
2023-05-14T00:31:56.357Z,98.7916
2023-05-14T00:32:57.275Z,98.7826
2023-05-14T00:33:58.144Z,98.7952
2023-05-14T00:34:59.520Z,98.8196
2023-05-14T00:36:00.418Z,98.8689
2023-05-14T00:37:01.105Z,98.8740
2023-05-14T00:38:01.593Z,98.8735
2023-05-14T00:39:02.495Z,98.9454
2023-05-14T00:40:03.138Z,99.0805
2023-05-14T00:41:03.512Z,99.1806
2023-05-14T00:45:05.218Z,99.2847
2023-05-14T00:46:05.498Z,99.2969
2023-05-14T00:47:07.273Z,99.3660
2023-05-14T00:48:07.938Z,99.4722
2023-05-14T00:49:08.270Z,99.5215
2023-05-14T00:50:09.275Z,99.5337
2023-05-14T00:51:09.862Z,99.5650
2023-05-14T00:52:09.992Z,99.5971
2023-05-14T00:53:10.149Z,99.6150
2023-05-14T00:54:11.656Z,99.6345
2023-05-14T01:00:16.664Z,99.9012
2023-05-14T01:05:18.474Z,99.8677
2023-05-14T01:14:22.885Z,99.1255
2023-05-14T01:15:23.354Z,99.1689
2023-05-14T01:16:23.838Z,99.2529
2023-05-14T01:17:24.969Z,99.3292
2023-05-14T01:18:24.991Z,99.7667
2023-05-14T01:19:26.197Z,100.0000
2023-05-14T01:20:27.644Z,100.0000
2023-05-14T01:21:27.913Z,100.0000
2023-05-14T01:22:29.119Z,100.0000
2023-05-14T01:35:33.132Z,100.0000
2023-05-14T01:37:33.275Z,100.0000
2023-05-14T01:38:34.218Z,100.0000
2023-05-14T01:40:35.200Z,100.0000
2023-05-14T01:41:36.115Z,100.0000
2023-05-14T01:42:37.250Z,100.0000
2023-05-14T01:43:37.475Z,100.0000
2023-05-14T01:44:37.841Z,100.0000
2023-05-14T01:51:41.113Z,100.0000
2023-05-14T01:59:46.509Z,99.0262
2023-05-14T02:00:46.550Z,99.0466
2023-05-14T02:02:49.765Z,99.0155
2023-05-14T02:03:50.147Z,99.0382
2023-05-14T02:05:53.668Z,99.0840
2023-05-14T02:07:54.512Z,99.0348
2023-05-14T02:08:54.857Z,99.0824
2023-05-14T02:09:56.006Z,99.2170
2023-05-14T02:10:57.047Z,99.3318
2023-05-14T02:11:57.378Z,99.3551
2023-05-14T02:12:57.452Z,99.2989
2023-05-14T02:13:57.829Z,99.1744
2023-05-14T02:14:59.042Z,99.1109
2023-05-14T02:20:02.134Z,99.1513
2023-05-14T02:21:02.938Z,99.1454
2023-05-14T02:22:03.789Z,99.1879
2023-05-14T02:23:03.908Z,99.1740
2023-05-14T02:24:05.174Z,99.1659
2023-05-14T02:25:05.860Z,99.1508
2023-05-14T02:26:06.912Z,99.1317
2023-05-14T02:35:15.101Z,99.2304
2023-05-14T02:36:14.541Z,99.2674
2023-05-14T02:37:14.888Z,99.3032
2023-05-14T02:38:15.533Z,99.3264
2023-05-14T02:39:15.890Z,99.3500
2023-05-14T02:40:16.811Z,99.3776
2023-05-14T02:41:18.317Z,99.4632
2023-05-14T02:42:19.274Z,99.5496
2023-05-14T02:44:20.862Z,99.6444
2023-05-14T02:45:21.324Z,99.6988
2023-05-14T02:46:21.614Z,99.7902
2023-05-14T02:47:22.696Z,99.8306
2023-05-14T02:48:23.393Z,99.8487
2023-05-14T02:49:24.580Z,99.8336
2023-05-14T02:50:25.273Z,99.8853
2023-05-14T02:51:25.468Z,99.9297
2023-05-14T02:52:26.180Z,99.9650
2023-05-14T02:53:26.880Z,99.9952
2023-05-14T02:54:27.433Z,100.0000
2023-05-14T02:55:28.465Z,100.0000
2023-05-14T02:56:29.219Z,100.0000
2023-05-14T02:57:29.320Z,100.0000
2023-05-14T02:58:30.227Z,100.0000
2023-05-14T02:59:30.507Z,100.0000
2023-05-14T03:00:30.539Z,100.0000
2023-05-14T03:01:31.345Z,100.0000
2023-05-14T03:02:32.162Z,100.0000
2023-05-14T03:11:42.262Z,100.0000
2023-05-14T03:13:41.998Z,100.0000
2023-05-14T03:14:43.517Z,100.0000
2023-05-14T03:15:44.774Z,100.0000
2023-05-14T03:16:45.620Z,100.0000
2023-05-14T03:17:46.821Z,100.0000
2023-05-14T03:21:48.335Z,100.0000
2023-05-14T03:22:49.175Z,100.0000
2023-05-14T03:23:49.930Z,100.0000
2023-05-14T03:24:50.183Z,100.0000
2023-05-14T03:25:50.538Z,100.0000
2023-05-14T03:26:51.920Z,100.0000
2023-05-14T03:31:55.725Z,100.0000
2023-05-14T03:42:02.944Z,100.0000
2023-05-14T03:43:03.437Z,100.0000
2023-05-14T03:44:03.657Z,100.0000
2023-05-14T03:45:04.532Z,100.0000
2023-05-14T03:46:05.442Z,100.0000
2023-05-14T03:48:06.331Z,100.0000
2023-05-14T03:49:06.941Z,100.0000
2023-05-14T03:51:06.722Z,100.0000
2023-05-14T03:52:10.597Z,100.0000
2023-05-14T03:54:09.318Z,100.0000
2023-05-14T04:02:13.972Z,100.0000
2023-05-14T04:03:14.707Z,100.0000
2023-05-14T04:04:15.790Z,100.0000
2023-05-14T04:05:17.190Z,100.0000
2023-05-14T04:07:18.093Z,100.0000
2023-05-14T04:08:19.112Z,100.0000
2023-05-14T04:10:20.317Z,100.0000
2023-05-14T04:11:20.547Z,100.0000
2023-05-14T04:12:20.559Z,100.0000
2023-05-14T04:13:22.097Z,100.0000
2023-05-14T04:14:22.815Z,100.0000
2023-05-14T04:18:24.553Z,100.0000
2023-05-14T04:19:24.650Z,100.0000
2023-05-14T04:20:24.886Z,100.0000
2023-05-14T04:21:26.125Z,100.0000
2023-05-14T04:22:26.361Z,100.0000
2023-05-14T04:23:26.604Z,100.0000
2023-05-14T04:24:27.786Z,100.0000
2023-05-14T04:30:32.613Z,100.0000
2023-05-14T04:31:34.567Z,100.0000
2023-05-14T04:35:35.708Z,100.0000
2023-05-14T04:36:36.442Z,100.0000
2023-05-14T04:37:37.129Z,100.0000
2023-05-14T04:38:37.312Z,100.0000
2023-05-14T04:43:40.252Z,100.0000
2023-05-14T04:49:44.212Z,100.0000
2023-05-14T04:50:45.274Z,100.0000
2023-05-14T04:51:46.112Z,100.0000
2023-05-14T04:52:46.802Z,100.0000
2023-05-14T04:53:47.762Z,100.0000
2023-05-14T04:54:47.508Z,100.0000
2023-05-14T04:55:48.448Z,100.0000
2023-05-14T05:01:53.309Z,100.0000
2023-05-14T05:13:02.079Z,100.0000
2023-05-14T05:14:02.749Z,100.0000
2023-05-14T05:16:02.808Z,100.0000
2023-05-14T05:17:03.271Z,100.0000
2023-05-14T05:18:04.807Z,100.0000
2023-05-14T05:19:05.908Z,100.0000
2023-05-14T05:20:06.790Z,100.0000
2023-05-14T05:21:07.254Z,100.0000
2023-05-14T05:28:10.863Z,100.0000
2023-05-14T05:29:11.186Z,100.0000
2023-05-14T05:30:11.783Z,100.0000
2023-05-14T05:31:13.169Z,100.0000
2023-05-14T05:33:13.229Z,100.0000
2023-05-14T05:35:13.941Z,100.0000
2023-05-14T05:36:14.593Z,100.0000
2023-05-14T05:37:15.910Z,100.0000
2023-05-14T05:51:27.929Z,100.0000
2023-05-14T05:52:28.720Z,100.0000
2023-05-14T05:53:29.423Z,93.7337
2023-05-14T05:54:30.054Z,90.7896
2023-05-14T05:55:31.285Z,90.7896
2023-05-14T05:56:32.560Z,90.7896
2023-05-14T05:57:32.623Z,90.7896
2023-05-14T05:58:33.280Z,90.7896
2023-05-14T05:59:34.007Z,90.7896
2023-05-14T06:09:38.585Z,90.7896
2023-05-14T06:10:39.137Z,90.7896
2023-05-14T06:11:39.382Z,90.7896
2023-05-14T06:12:39.965Z,90.7896
2023-05-14T06:13:40.738Z,90.7896
2023-05-14T06:14:41.188Z,90.7896
2023-05-14T06:15:43.053Z,90.7896
2023-05-14T06:16:44.407Z,90.7896
2023-05-14T06:17:44.854Z,90.7896
2023-05-14T06:18:45.803Z,90.7896
2023-05-14T06:19:46.352Z,90.7896
2023-05-14T06:20:46.527Z,90.7896
2023-05-14T06:22:49.843Z,90.7896
2023-05-14T06:23:50.302Z,90.7896
2023-05-14T06:24:50.358Z,90.7896
2023-05-14T06:26:54.662Z,90.7896
2023-05-14T06:27:55.006Z,90.7896
2023-05-14T06:28:55.091Z,90.7896
2023-05-14T06:30:57.474Z,92.5672
2023-05-14T06:31:57.812Z,93.2926
2023-05-14T06:34:01.022Z,94.1896
2023-05-14T06:35:02.108Z,94.3523
2023-05-14T06:37:02.866Z,93.2892
2023-05-14T06:38:02.934Z,93.9477
2023-05-14T06:39:03.690Z,94.6255
2023-05-14T06:40:05.186Z,94.3815
2023-05-14T06:41:05.350Z,92.9535
2023-05-14T06:43:07.611Z,93.2570
2023-05-14T06:48:17.027Z,92.2063
2023-05-14T06:49:17.961Z,94.0553
2023-05-14T06:50:18.883Z,93.1206
2023-05-14T06:54:38.691Z,92.0369
2023-05-14T06:55:39.799Z,92.3200
2023-05-14T06:56:40.053Z,93.1632
2023-05-14T06:57:41.024Z,93.1163
2023-05-14T06:58:42.843Z,92.9272
2023-05-14T07:00:42.978Z,93.1083
2023-05-14T07:01:44.088Z,93.7357
2023-05-14T07:02:45.032Z,92.9793
2023-05-14T07:09:26.055Z,94.8789
2023-05-14T07:10:28.654Z,94.6623
2023-05-14T07:18:08.915Z,94.3101
2023-05-14T07:19:09.746Z,94.3651
2023-05-14T07:20:11.216Z,94.3497
2023-05-14T07:21:11.335Z,94.5861
2023-05-14T07:22:12.969Z,95.4267
2023-05-14T07:23:13.756Z,95.6290
2023-05-14T07:25:14.655Z,96.1928
2023-05-14T07:26:14.711Z,95.4359
2023-05-14T07:27:15.726Z,94.4565
2023-05-14T07:28:17.188Z,94.3075
2023-05-14T07:29:17.237Z,94.2867
2023-05-14T07:30:17.693Z,93.7317
2023-05-14T07:31:19.364Z,93.5079
2023-05-14T07:32:20.246Z,93.4225
2023-05-14T07:36:21.477Z,91.6609
2023-05-14T07:38:22.457Z,88.6379
2023-05-14T07:39:22.758Z,89.0812
2023-05-14T07:40:23.081Z,89.6474
2023-05-14T07:46:25.179Z,88.6327
2023-05-14T07:47:26.518Z,86.8428
2023-05-14T07:48:27.015Z,86.1935
2023-05-14T07:49:27.935Z,85.8837
2023-05-14T07:50:29.142Z,82.8138
2023-05-14T07:51:30.206Z,83.8318
2023-05-14T07:52:31.957Z,81.5563
2023-05-14T07:53:32.585Z,80.1588
2023-05-14T07:54:33.388Z,82.1088
2023-05-14T07:55:34.145Z,75.1337
2023-05-14T07:56:46.949Z,75.4590
2023-05-14T08:06:54.103Z,80.7370
2023-05-14T08:10:56.994Z,79.6180
2023-05-14T08:13:57.140Z,76.1686
2023-05-14T08:14:57.616Z,75.5692
2023-05-14T08:15:57.624Z,75.6642
2023-05-14T08:16:58.854Z,76.1141
2023-05-14T08:17:59.454Z,76.6406
2023-05-14T08:19:00.497Z,77.6431
2023-05-14T08:20:01.839Z,79.9169
2023-05-14T08:21:05.408Z,82.5781
2023-05-14T08:22:06.196Z,81.1269
2023-05-14T08:23:07.412Z,77.1131
2023-05-14T08:25:10.066Z,77.6934
2023-05-14T08:26:10.436Z,77.7203
2023-05-14T08:29:46.208Z,80.5342
2023-05-14T08:30:46.630Z,80.8885
2023-05-14T08:31:46.858Z,81.5144
2023-05-14T08:32:47.489Z,81.6248
2023-05-14T08:33:48.502Z,81.7879
2023-05-14T08:34:50.003Z,82.8199
2023-05-14T08:36:55.195Z,83.8519
2023-05-14T08:37:55.678Z,81.4551
2023-05-14T08:38:56.018Z,81.9858
2023-05-14T08:39:56.454Z,82.8984
2023-05-14T08:40:56.939Z,82.7951
2023-05-14T08:41:57.801Z,81.3891
2023-05-14T08:42:58.951Z,83.3619
2023-05-14T08:43:59.736Z,81.2447
2023-05-14T08:45:00.781Z,82.6012
2023-05-14T08:46:01.897Z,81.7944
2023-05-14T08:47:02.246Z,80.9949
2023-05-14T08:48:04.863Z,81.7048
2023-05-14T08:50:03.718Z,78.5834
2023-05-14T08:51:04.191Z,78.9855
2023-05-14T08:52:04.948Z,79.3719
2023-05-14T08:53:05.528Z,79.3038
2023-05-14T08:54:05.723Z,81.3015
2023-05-14T08:55:06.651Z,79.2822
2023-05-14T08:56:06.526Z,76.9717
2023-05-14T08:57:07.012Z,77.6986
2023-05-14T09:05:14.789Z,69.8177
2023-05-14T09:06:15.580Z,69.5956
2023-05-14T09:07:16.249Z,66.8298
2023-05-14T09:09:04.183Z,65.6771
2023-05-14T09:10:04.608Z,70.1020
2023-05-14T09:11:06.628Z,70.7141
2023-05-14T09:12:07.477Z,73.3699
2023-05-14T09:13:08.683Z,73.2107
2023-05-14T09:14:09.880Z,70.6579
2023-05-14T09:15:10.941Z,68.6662
2023-05-14T09:16:12.466Z,73.1417
2023-05-14T09:17:12.255Z,72.2806
2023-05-14T09:18:13.495Z,74.8043
2023-05-14T09:19:14.227Z,74.8373
2023-05-14T09:20:15.167Z,71.4342
2023-05-14T09:24:04.407Z,75.6547
2023-05-14T09:30:09.629Z,78.0675
2023-05-14T09:31:09.740Z,77.5771
2023-05-14T09:33:09.799Z,80.8646
2023-05-14T09:35:10.686Z,81.5973
2023-05-14T09:36:11.969Z,82.0299
2023-05-14T09:37:12.892Z,83.7961
2023-05-14T09:43:22.971Z,82.0988
2023-05-14T09:46:26.617Z,77.5163
2023-05-14T09:47:26.917Z,76.9095
2023-05-14T09:48:26.985Z,76.8126
2023-05-14T09:49:27.810Z,77.2230
2023-05-14T09:51:29.033Z,77.6671
2023-05-14T09:52:29.700Z,74.6556
2023-05-14T09:53:30.756Z,75.1866
2023-05-14T09:57:58.389Z,79.0405
2023-05-14T09:58:58.897Z,81.9358
2023-05-14T10:00:00.001Z,80.5510
2023-05-14T10:01:01.078Z,83.2031
2023-05-14T10:02:02.260Z,84.0821
2023-05-14T10:03:02.262Z,84.7585
2023-05-14T10:04:04.057Z,85.8583
2023-05-14T10:05:05.262Z,85.7927
2023-05-14T10:06:05.399Z,83.5150
2023-05-14T10:07:06.413Z,83.8514
2023-05-14T10:08:06.792Z,84.0346
2023-05-14T10:09:07.405Z,84.8402
2023-05-14T10:10:08.514Z,86.5390
2023-05-14T10:12:09.651Z,85.1664
2023-05-14T10:13:10.601Z,86.7574
2023-05-14T10:16:41.015Z,83.9918
2023-05-14T10:17:41.149Z,84.7903
2023-05-14T10:18:42.303Z,83.6618
2023-05-14T10:19:43.166Z,83.5864
2023-05-14T10:20:44.306Z,84.6444
2023-05-14T10:21:45.144Z,82.4006
2023-05-14T10:22:45.408Z,84.6763
2023-05-14T10:29:25.077Z,79.4100
2023-05-14T10:30:26.446Z,79.5574
2023-05-14T10:31:26.430Z,80.7924
2023-05-14T10:32:27.166Z,81.3691
2023-05-14T10:33:27.679Z,81.8213
2023-05-14T10:34:29.008Z,81.8391
2023-05-14T10:35:30.244Z,82.1114
2023-05-14T10:36:31.102Z,81.9970
2023-05-14T10:37:31.752Z,85.3349
2023-05-14T10:42:20.660Z,83.2909
2023-05-14T10:51:07.710Z,79.9808
2023-05-14T10:52:07.749Z,80.4994
2023-05-14T10:53:08.717Z,79.2904
2023-05-14T10:54:09.123Z,81.0980
2023-05-14T10:55:10.404Z,80.7594
2023-05-14T10:56:10.629Z,79.5747
2023-05-14T10:57:11.346Z,79.1091
2023-05-14T10:58:11.531Z,78.1914
2023-05-14T10:59:12.615Z,77.3080
2023-05-14T11:00:13.273Z,76.3280
2023-05-14T11:01:13.329Z,79.1090
2023-05-14T11:02:15.901Z,79.8937
2023-05-14T11:06:40.378Z,74.7177
2023-05-14T11:10:41.680Z,68.7941
2023-05-14T11:11:42.771Z,68.3930
2023-05-14T11:12:43.440Z,68.5463
2023-05-14T11:13:44.244Z,71.6416
2023-05-14T11:18:48.534Z,73.6006
2023-05-14T11:19:50.461Z,68.1176
2023-05-14T11:31:31.454Z,82.4715
2023-05-14T11:32:31.719Z,85.3259
2023-05-14T11:33:33.341Z,83.9241
2023-05-14T11:34:33.322Z,82.9303
2023-05-14T11:35:34.284Z,80.6084
2023-05-14T11:36:36.277Z,80.9328
2023-05-14T11:38:36.441Z,82.4780
2023-05-14T11:41:39.737Z,81.3071
2023-05-14T11:43:45.782Z,78.7066
2023-05-14T11:48:53.674Z,77.9486
2023-05-14T11:49:53.924Z,78.0714
2023-05-14T11:51:29.098Z,79.9388
2023-05-14T11:53:33.493Z,80.8911
2023-05-14T11:55:31.290Z,78.5883
2023-05-14T11:58:32.230Z,80.5672
2023-05-14T11:59:33.201Z,78.3180
2023-05-14T12:01:34.298Z,76.0571
2023-05-14T12:02:35.234Z,75.3434
2023-05-14T12:03:35.821Z,75.6225
2023-05-14T12:04:35.482Z,77.7133
2023-05-14T12:05:36.148Z,77.3749
2023-05-14T12:06:38.167Z,76.6884
2023-05-14T12:07:37.924Z,74.6881
2023-05-14T12:12:40.472Z,77.9959
2023-05-14T12:13:41.867Z,76.5306
2023-05-14T12:14:42.592Z,78.1438
2023-05-14T12:21:54.434Z,86.1907
2023-05-14T12:22:55.209Z,86.9838
2023-05-14T12:23:55.923Z,87.0124
2023-05-14T12:24:57.145Z,87.3705
2023-05-14T12:25:57.719Z,88.1045
2023-05-14T12:26:58.028Z,88.4280
2023-05-14T12:27:58.380Z,89.2161
2023-05-14T12:28:59.170Z,88.2255
2023-05-14T12:30:09.203Z,88.3623
2023-05-14T12:31:00.486Z,88.8673
2023-05-14T12:33:02.928Z,89.0368
2023-05-14T12:34:04.087Z,89.1586
2023-05-14T12:36:20.746Z,89.8211
2023-05-14T12:37:07.549Z,89.7186
2023-05-14T12:38:07.682Z,90.1690
2023-05-14T12:39:08.894Z,91.1490
2023-05-14T12:40:10.353Z,91.3438
2023-05-14T12:41:11.491Z,92.2662
2023-05-14T12:42:12.172Z,91.4004
2023-05-14T12:43:12.506Z,92.3812
2023-05-14T12:45:13.720Z,92.7133
2023-05-14T12:49:17.886Z,92.6483
2023-05-14T12:51:19.740Z,92.4719
2023-05-14T12:53:24.058Z,92.9094
2023-05-14T12:56:25.357Z,93.1403
2023-05-14T12:58:26.328Z,93.5333
2023-05-14T12:59:26.587Z,93.5368
2023-05-14T13:00:26.922Z,94.1005
2023-05-14T13:01:27.608Z,94.0454
2023-05-14T13:02:28.637Z,93.6634
2023-05-14T13:03:29.138Z,92.5856
2023-05-14T13:04:30.438Z,93.2015
2023-05-14T13:05:31.541Z,92.1190
2023-05-14T13:06:32.491Z,92.1080
2023-05-14T13:07:32.957Z,92.2303
2023-05-14T13:08:33.400Z,92.7708
2023-05-14T13:09:33.980Z,92.9080
2023-05-14T13:10:34.598Z,92.6001
2023-05-14T13:17:42.272Z,87.1717
2023-05-14T13:19:42.870Z,85.9122
2023-05-14T13:20:43.482Z,86.2943
2023-05-14T13:21:44.105Z,85.8937
2023-05-14T13:22:44.853Z,87.9405
2023-05-14T13:24:46.768Z,84.9282
2023-05-14T13:27:47.396Z,85.1735
2023-05-14T13:29:48.274Z,83.7246
2023-05-14T13:36:53.498Z,84.8836
2023-05-14T13:37:54.516Z,82.8377
2023-05-14T13:38:55.648Z,81.1513
2023-05-14T13:39:55.921Z,81.2767
2023-05-14T13:40:56.322Z,81.1333
2023-05-14T13:41:56.628Z,81.0787
2023-05-14T13:42:57.701Z,81.3990
2023-05-14T13:43:58.388Z,80.0698
2023-05-14T13:45:58.741Z,79.8246
2023-05-14T13:46:58.944Z,78.8088
2023-05-14T13:47:59.526Z,79.5819
2023-05-14T13:48:59.625Z,79.8764
2023-05-14T13:50:00.865Z,77.7642
2023-05-14T13:51:02.019Z,77.8934
2023-05-14T13:52:02.447Z,79.3352
2023-05-14T13:53:03.301Z,80.2251
2023-05-14T13:54:04.301Z,80.9713
2023-05-14T13:55:04.976Z,79.9808
2023-05-14T13:56:05.321Z,79.3902
2023-05-14T13:57:06.434Z,80.1071
2023-05-14T13:58:06.861Z,77.6851
2023-05-14T13:59:06.689Z,76.0135
2023-05-14T14:00:07.354Z,74.4641
2023-05-14T14:01:07.701Z,74.6628
2023-05-14T14:03:08.775Z,75.4275
2023-05-14T14:04:09.603Z,71.5037
2023-05-14T14:05:10.144Z,71.1899
2023-05-14T14:06:10.472Z,74.2258
2023-05-14T14:07:11.301Z,71.7112
2023-05-14T14:08:23.473Z,71.3097
2023-05-14T14:09:19.039Z,69.2758
2023-05-14T14:12:20.772Z,69.2997
2023-05-14T14:13:21.778Z,72.2388
2023-05-14T14:14:20.932Z,70.5327
2023-05-14T14:15:20.937Z,75.4484
2023-05-14T14:16:22.129Z,73.6042
2023-05-14T14:17:23.109Z,71.9457
2023-05-14T14:25:28.709Z,69.3462
2023-05-14T14:26:28.718Z,69.1623
2023-05-14T14:27:29.449Z,69.0829
2023-05-14T14:28:29.759Z,70.5612
2023-05-14T14:29:29.853Z,68.2944
2023-05-14T14:30:30.958Z,69.7338
2023-05-14T14:31:31.860Z,70.0520
2023-05-14T14:32:33.058Z,70.5405
2023-05-14T14:33:33.480Z,72.4388
2023-05-14T14:34:34.567Z,72.0929
2023-05-14T14:35:35.329Z,72.9124
2023-05-14T14:36:35.785Z,73.4082
2023-05-14T14:37:37.340Z,73.1208
2023-05-14T14:44:39.665Z,77.0442
2023-05-14T14:45:40.014Z,76.0747
2023-05-14T14:46:41.032Z,76.4825
2023-05-14T14:47:42.171Z,77.8745
2023-05-14T14:48:42.501Z,77.4771
2023-05-14T14:49:43.372Z,77.9279
2023-05-14T14:50:43.824Z,78.8806
2023-05-14T14:51:45.472Z,82.3304
2023-05-14T14:52:46.742Z,82.5478
2023-05-14T14:53:47.152Z,84.3918
2023-05-14T14:54:47.356Z,85.5192
2023-05-14T14:55:48.613Z,86.9445
2023-05-14T14:56:49.833Z,87.6732
2023-05-14T14:57:51.061Z,88.4164
2023-05-14T14:58:51.011Z,89.4346
2023-05-14T14:59:51.059Z,90.2390
2023-05-14T15:00:52.163Z,91.2714
2023-05-14T15:01:52.667Z,91.9033
2023-05-14T15:02:52.930Z,92.7251
2023-05-14T15:03:54.010Z,93.0655
2023-05-14T15:04:54.753Z,93.5173
2023-05-14T15:05:55.498Z,93.2734
2023-05-14T15:06:55.902Z,93.6618
2023-05-14T15:07:56.360Z,93.8672
2023-05-14T15:08:57.465Z,94.0324
2023-05-14T15:09:58.014Z,94.4657
2023-05-14T15:10:58.208Z,94.6881
2023-05-14T15:11:58.437Z,94.8239
2023-05-14T15:12:58.534Z,95.1622
2023-05-14T15:13:59.154Z,95.3571
2023-05-14T15:14:59.615Z,95.6202
2023-05-14T15:16:00.701Z,95.7967
2023-05-14T15:17:01.240Z,95.8044
2023-05-14T15:18:02.418Z,95.9546
2023-05-14T15:19:02.691Z,96.2384
2023-05-14T15:20:03.305Z,96.4057
2023-05-14T15:21:04.445Z,96.4543
2023-05-14T15:22:04.440Z,96.6600
2023-05-14T15:23:05.124Z,96.8081
2023-05-14T15:24:05.786Z,96.8362
2023-05-14T15:25:05.997Z,96.8862
2023-05-14T15:26:06.025Z,97.0498
2023-05-14T15:27:07.096Z,97.1037
2023-05-14T15:28:08.216Z,97.2398
2023-05-14T15:29:08.455Z,97.3972
2023-05-14T15:30:09.203Z,97.5353
2023-05-14T15:31:10.253Z,97.4929
2023-05-14T15:32:11.610Z,97.7325
2023-05-14T15:33:12.387Z,97.7652
2023-05-14T15:34:14.053Z,97.2453
2023-05-14T15:35:13.751Z,95.5372
2023-05-14T15:36:14.213Z,93.7645
2023-05-14T15:37:14.290Z,93.7852
2023-05-14T15:38:15.311Z,94.5832
2023-05-14T15:39:15.696Z,95.6895
2023-05-14T15:40:16.000Z,96.0401
2023-05-14T15:41:17.366Z,96.0681
2023-05-14T15:43:18.195Z,96.2579
2023-05-14T15:45:20.945Z,96.1083
2023-05-14T15:46:22.054Z,96.8947
2023-05-14T15:47:22.791Z,96.3865
2023-05-14T15:48:23.848Z,96.3204
2023-05-14T15:49:24.193Z,96.3691
2023-05-14T15:50:25.276Z,96.5439
2023-05-14T15:51:25.122Z,96.9576
2023-05-14T15:52:26.116Z,96.9081
2023-05-14T15:53:26.977Z,96.8344
2023-05-14T15:54:27.835Z,96.9948
2023-05-14T15:55:28.098Z,96.8769
2023-05-14T15:56:28.931Z,97.0390
2023-05-14T15:57:29.790Z,97.0842
2023-05-14T15:58:29.856Z,96.9743
2023-05-14T15:59:30.890Z,96.9506
2023-05-14T16:00:32.024Z,96.8408
2023-05-14T16:01:32.556Z,96.7292
2023-05-14T16:02:33.449Z,96.7031
2023-05-14T16:03:34.067Z,96.6876
2023-05-14T16:04:34.371Z,96.6803
2023-05-14T16:05:35.517Z,96.0459
2023-05-14T16:06:36.278Z,95.8644
2023-05-14T16:07:37.534Z,95.7720
2023-05-14T16:08:38.275Z,95.7509
2023-05-14T16:09:38.778Z,95.6040
2023-05-14T16:10:39.668Z,95.2127
2023-05-14T16:11:39.885Z,95.2404
2023-05-14T16:12:40.790Z,94.8803
2023-05-14T16:14:42.079Z,95.4366
2023-05-14T16:16:42.776Z,95.7941
2023-05-14T16:17:44.504Z,95.4131
2023-05-14T16:18:45.368Z,95.2324
2023-05-14T16:19:45.783Z,95.6995
2023-05-14T16:20:46.731Z,96.3511
2023-05-14T16:21:47.211Z,97.0363
2023-05-14T16:22:47.841Z,97.4793
2023-05-14T16:23:48.648Z,97.6214
2023-05-14T16:24:49.149Z,97.5988
2023-05-14T16:25:50.498Z,97.6750
2023-05-14T16:27:50.759Z,97.6380
2023-05-14T16:28:52.335Z,97.6408
2023-05-14T16:29:52.762Z,97.9040
2023-05-14T16:30:53.926Z,98.0385
2023-05-14T16:31:54.946Z,98.1055
2023-05-14T16:32:56.051Z,98.1710
2023-05-14T16:33:57.194Z,98.1830
2023-05-14T16:34:57.652Z,98.3246
2023-05-14T16:35:58.169Z,98.4082
2023-05-14T16:38:00.089Z,98.5581
2023-05-14T16:39:07.314Z,98.5979
2023-05-14T16:40:03.325Z,98.7553
2023-05-14T16:41:03.843Z,98.8632
2023-05-14T16:42:03.932Z,98.9265
2023-05-14T16:43:04.809Z,98.9348
2023-05-14T16:44:05.044Z,98.9731
2023-05-14T16:45:05.805Z,99.0225
2023-05-14T16:46:06.497Z,99.0316
2023-05-14T16:47:07.231Z,99.0363
2023-05-14T16:49:08.146Z,99.0708
2023-05-14T16:52:09.814Z,98.9644
2023-05-14T16:53:10.128Z,98.8836
2023-05-14T16:54:10.276Z,98.8728
2023-05-14T16:57:13.330Z,98.9281
2023-05-14T16:58:14.193Z,98.9384
2023-05-14T16:59:15.334Z,98.9616
2023-05-14T17:00:16.442Z,98.9917
2023-05-14T17:01:17.833Z,99.0239
2023-05-14T17:02:18.638Z,99.0521
2023-05-14T17:03:18.681Z,99.0609
2023-05-14T17:04:19.321Z,99.0800
2023-05-14T17:05:19.690Z,99.1286
2023-05-14T17:06:20.564Z,99.2352
2023-05-14T17:07:21.362Z,99.3611
2023-05-14T17:08:22.681Z,99.4254
2023-05-14T17:09:24.115Z,99.4462
2023-05-14T17:10:24.450Z,99.4685
2023-05-14T17:11:25.543Z,99.4774
2023-05-14T17:12:25.746Z,99.4902
2023-05-14T17:15:28.129Z,99.5013
2023-05-14T17:16:27.870Z,99.5082
2023-05-14T17:17:28.761Z,99.5223
2023-05-14T17:19:29.431Z,99.5556
2023-05-14T17:20:29.911Z,99.5592
2023-05-14T17:22:32.389Z,99.5724
2023-05-14T17:23:32.565Z,99.5804
2023-05-14T17:24:32.630Z,99.5931
2023-05-14T17:25:33.398Z,99.5984
2023-05-14T17:27:36.861Z,99.5981
2023-05-14T17:28:38.013Z,99.5913
2023-05-14T17:29:39.351Z,99.5988
2023-05-14T17:30:39.416Z,99.6001
2023-05-14T17:31:40.269Z,99.6171
2023-05-14T17:32:41.621Z,99.6238
2023-05-14T17:33:42.600Z,99.6449
2023-05-14T17:34:43.595Z,99.6774
2023-05-14T17:35:44.463Z,99.6921
2023-05-14T17:36:44.371Z,99.7007
2023-05-14T17:37:45.120Z,99.7033
2023-05-14T17:38:47.508Z,99.7175
2023-05-14T17:48:53.030Z,99.3871
2023-05-14T17:49:53.201Z,99.3946
2023-05-14T17:50:54.249Z,99.4302
2023-05-14T17:51:55.167Z,99.5329
2023-05-14T17:52:56.789Z,99.6233
2023-05-14T17:53:56.383Z,99.6824
2023-05-14T17:54:57.246Z,99.6980
2023-05-14T17:55:57.346Z,99.7079
2023-05-14T17:56:58.110Z,99.7247
2023-05-14T17:57:59.321Z,99.7456
2023-05-14T17:59:00.055Z,99.7605
2023-05-14T18:00:01.183Z,99.7914
2023-05-14T18:01:01.301Z,99.8093
2023-05-14T18:02:01.942Z,99.8089
2023-05-14T18:03:02.360Z,99.8010
2023-05-14T18:04:02.549Z,99.8297
2023-05-14T18:05:02.998Z,99.8456
2023-05-14T18:06:03.592Z,99.8728
2023-05-14T18:07:04.522Z,99.8998
2023-05-14T18:08:05.957Z,99.9066
2023-05-14T18:09:07.105Z,99.9329
2023-05-14T18:10:07.167Z,99.9493
2023-05-14T18:11:07.917Z,99.9277
2023-05-14T18:12:08.697Z,99.9078
2023-05-14T18:13:09.675Z,99.9034
2023-05-14T18:14:11.055Z,99.9125
2023-05-14T18:15:11.328Z,99.9388
2023-05-14T18:16:12.015Z,99.9665
2023-05-14T18:17:12.367Z,99.9652
2023-05-14T18:18:12.655Z,99.9603
2023-05-14T18:19:13.387Z,99.9492
2023-05-14T18:20:13.487Z,99.9341
2023-05-14T18:21:14.830Z,99.9583
2023-05-14T18:23:15.340Z,99.9972
2023-05-14T18:24:16.039Z,99.9989
2023-05-14T18:25:16.636Z,99.9995
2023-05-14T18:26:18.008Z,100.0000
2023-05-14T18:28:19.014Z,99.9895
2023-05-14T18:29:19.918Z,99.9991
2023-05-14T18:30:20.327Z,100.0000
2023-05-14T18:31:21.041Z,100.0000
2023-05-14T18:32:21.202Z,100.0000
2023-05-14T18:42:12.675Z,100.0000
2023-05-14T18:43:13.708Z,100.0000
2023-05-14T18:44:13.862Z,100.0000
2023-05-14T18:45:14.512Z,100.0000
2023-05-14T18:46:16.056Z,100.0000
2023-05-14T18:47:17.084Z,100.0000
2023-05-14T18:48:17.150Z,100.0000
2023-05-14T18:49:18.397Z,100.0000
2023-05-14T18:50:19.269Z,100.0000
2023-05-14T18:51:19.374Z,100.0000
2023-05-14T18:52:20.435Z,100.0000
2023-05-14T18:53:22.302Z,100.0000
2023-05-14T18:58:26.618Z,100.0000
2023-05-14T18:59:26.904Z,100.0000
2023-05-14T19:01:27.801Z,100.0000
2023-05-14T19:04:33.135Z,100.0000
2023-05-14T19:05:31.141Z,100.0000
2023-05-14T19:11:35.279Z,100.0000
2023-05-14T19:12:35.509Z,100.0000
2023-05-14T19:14:38.572Z,100.0000
2023-05-14T19:15:38.721Z,100.0000